sensor_id;sensor_type;location;lat;lon;timestamp;P1;durP1;ratioP1;P2;durP2;ratioP2
22863;SDS011;11599;49.882;8.680;2022-09-03T00:01:11;1.80;;;0.88;;
22863;SDS011;11599;49.882;8.680;2022-09-03T00:11:38;1.50;;;0.85;;
22863;SDS011;11599;49.882;8.680;2022-09-03T00:22:02;2.80;;;0.90;;
22863;SDS011;11599;49.882;8.680;2022-09-03T00:32:28;1.95;;;0.80;;
22863;SDS011;11599;49.882;8.680;2022-09-03T00:42:56;2.73;;;1.00;;
22863;SDS011;11599;49.882;8.680;2022-09-03T00:53:21;2.00;;;0.90;;
22863;SDS011;11599;49.882;8.680;2022-09-03T01:03:49;3.00;;;0.93;;
22863;SDS011;11599;49.882;8.680;2022-09-03T01:14:18;2.15;;;0.90;;
22863;SDS011;11599;49.882;8.680;2022-09-03T01:24:49;1.33;;;0.90;;
22863;SDS011;11599;49.882;8.680;2022-09-03T01:35:16;4.87;;;1.10;;
22863;SDS011;11599;49.882;8.680;2022-09-03T01:45:42;2.87;;;0.97;;
22863;SDS011;11599;49.882;8.680;2022-09-03T01:56:16;3.30;;;0.90;;
22863;SDS011;11599;49.882;8.680;2022-09-03T02:06:40;2.13;;;1.07;;
22863;SDS011;11599;49.882;8.680;2022-09-03T02:17:03;3.10;;;0.90;;
22863;SDS011;11599;49.882;8.680;2022-09-03T02:27:24;2.75;;;1.00;;
22863;SDS011;11599;49.882;8.680;2022-09-03T02:37:47;1.57;;;1.00;;
22863;SDS011;11599;49.882;8.680;2022-09-03T02:48:09;1.58;;;0.80;;
22863;SDS011;11599;49.882;8.680;2022-09-03T02:58:32;3.03;;;1.13;;
22863;SDS011;11599;49.882;8.680;2022-09-03T03:08:54;2.92;;;0.98;;
22863;SDS011;11599;49.882;8.680;2022-09-03T03:19:17;3.67;;;1.00;;
22863;SDS011;11599;49.882;8.680;2022-09-03T03:29:39;2.90;;;1.00;;
22863;SDS011;11599;49.882;8.680;2022-09-03T03:40:02;2.90;;;0.90;;
22863;SDS011;11599;49.882;8.680;2022-09-03T03:50:23;3.20;;;0.90;;
22863;SDS011;11599;49.882;8.680;2022-09-03T04:00:46;2.87;;;1.00;;
22863;SDS011;11599;49.882;8.680;2022-09-03T04:11:09;1.80;;;1.00;;
22863;SDS011;11599;49.882;8.680;2022-09-03T04:21:32;2.30;;;1.10;;
22863;SDS011;11599;49.882;8.680;2022-09-03T04:31:54;2.17;;;1.10;;
22863;SDS011;11599;49.882;8.680;2022-09-03T04:42:34;2.67;;;1.10;;
22863;SDS011;11599;49.882;8.680;2022-09-03T04:52:58;2.67;;;1.60;;
22863;SDS011;11599;49.882;8.680;2022-09-03T05:03:21;3.60;;;1.00;;
22863;SDS011;11599;49.882;8.680;2022-09-03T05:13:45;2.50;;;1.20;;
22863;SDS011;11599;49.882;8.680;2022-09-03T05:24:09;3.27;;;1.07;;
22863;SDS011;11599;49.882;8.680;2022-09-03T05:34:31;1.93;;;0.90;;
22863;SDS011;11599;49.882;8.680;2022-09-03T05:44:53;4.87;;;1.00;;
22863;SDS011;11599;49.882;8.680;2022-09-03T05:55:15;5.63;;;1.20;;
22863;SDS011;11599;49.882;8.680;2022-09-03T06:05:38;4.47;;;1.20;;
22863;SDS011;11599;49.882;8.680;2022-09-03T06:16:00;3.67;;;1.20;;
22863;SDS011;11599;49.882;8.680;2022-09-03T06:26:23;4.80;;;1.30;;
22863;SDS011;11599;49.882;8.680;2022-09-03T06:36:47;7.33;;;1.50;;
22863;SDS011;11599;49.882;8.680;2022-09-03T06:47:10;2.80;;;1.53;;
22863;SDS011;11599;49.882;8.680;2022-09-03T06:57:31;3.42;;;1.50;;
22863;SDS011;11599;49.882;8.680;2022-09-03T07:07:54;5.45;;;1.60;;
22863;SDS011;11599;49.882;8.680;2022-09-03T07:18:15;3.20;;;1.60;;
22863;SDS011;11599;49.882;8.680;2022-09-03T07:28:40;2.95;;;1.70;;
22863;SDS011;11599;49.882;8.680;2022-09-03T07:39:01;2.92;;;1.88;;
22863;SDS011;11599;49.882;8.680;2022-09-03T07:49:25;3.17;;;1.87;;
22863;SDS011;11599;49.882;8.680;2022-09-03T07:59:46;7.33;;;2.13;;
22863;SDS011;11599;49.882;8.680;2022-09-03T08:10:09;6.43;;;2.20;;
22863;SDS011;11599;49.882;8.680;2022-09-03T08:20:34;4.43;;;2.10;;
22863;SDS011;11599;49.882;8.680;2022-09-03T08:30:58;6.03;;;2.10;;
22863;SDS011;11599;49.882;8.680;2022-09-03T08:41:20;4.80;;;1.90;;
22863;SDS011;11599;49.882;8.680;2022-09-03T08:51:44;2.67;;;1.90;;
22863;SDS011;11599;49.882;8.680;2022-09-03T09:02:12;2.85;;;2.00;;
22863;SDS011;11599;49.882;8.680;2022-09-03T09:12:40;2.85;;;2.03;;
22863;SDS011;11599;49.882;8.680;2022-09-03T09:23:06;4.00;;;2.20;;
22863;SDS011;11599;49.882;8.680;2022-09-03T09:33:29;4.22;;;1.80;;
22863;SDS011;11599;49.882;8.680;2022-09-03T09:43:58;3.20;;;1.95;;
22863;SDS011;11599;49.882;8.680;2022-09-03T09:54:24;6.30;;;2.00;;
22863;SDS011;11599;49.882;8.680;2022-09-03T10:04:47;11.85;;;1.80;;
22863;SDS011;11599;49.882;8.680;2022-09-03T10:15:11;3.58;;;2.20;;
22863;SDS011;11599;49.882;8.680;2022-09-03T10:25:37;2.38;;;1.90;;
22863;SDS011;11599;49.882;8.680;2022-09-03T10:36:04;3.92;;;2.00;;
22863;SDS011;11599;49.882;8.680;2022-09-03T10:46:28;3.17;;;1.88;;
22863;SDS011;11599;49.882;8.680;2022-09-03T10:57:01;2.15;;;1.90;;
22863;SDS011;11599;49.882;8.680;2022-09-03T11:07:25;6.63;;;2.00;;
22863;SDS011;11599;49.882;8.680;2022-09-03T11:17:51;2.17;;;1.80;;
22863;SDS011;11599;49.882;8.680;2022-09-03T11:28:19;3.90;;;1.90;;
22863;SDS011;11599;49.882;8.680;2022-09-03T11:38:45;3.10;;;2.00;;
22863;SDS011;11599;49.882;8.680;2022-09-03T11:49:10;4.18;;;2.10;;
22863;SDS011;11599;49.882;8.680;2022-09-03T11:59:33;2.70;;;1.90;;
22863;SDS011;11599;49.882;8.680;2022-09-03T12:09:58;3.17;;;2.00;;
22863;SDS011;11599;49.882;8.680;2022-09-03T12:20:26;2.47;;;1.57;;
22863;SDS011;11599;49.882;8.680;2022-09-03T12:30:48;2.22;;;1.65;;
22863;SDS011;11599;49.882;8.680;2022-09-03T12:41:21;3.60;;;1.80;;
22863;SDS011;11599;49.882;8.680;2022-09-03T12:51:43;3.10;;;1.90;;
22863;SDS011;11599;49.882;8.680;2022-09-03T13:02:10;1.63;;;1.50;;
22863;SDS011;11599;49.882;8.680;2022-09-03T13:12:33;2.60;;;1.50;;
22863;SDS011;11599;49.882;8.680;2022-09-03T13:23:09;4.60;;;1.80;;
22863;SDS011;11599;49.882;8.680;2022-09-03T13:33:36;3.22;;;1.80;;
22863;SDS011;11599;49.882;8.680;2022-09-03T13:44:01;3.50;;;1.73;;
22863;SDS011;11599;49.882;8.680;2022-09-03T13:54:28;3.23;;;1.60;;
22863;SDS011;11599;49.882;8.680;2022-09-03T14:04:57;1.92;;;1.42;;
22863;SDS011;11599;49.882;8.680;2022-09-03T14:15:23;1.63;;;1.40;;
22863;SDS011;11599;49.882;8.680;2022-09-03T14:25:52;3.20;;;1.50;;
22863;SDS011;11599;49.882;8.680;2022-09-03T14:36:16;2.33;;;1.40;;
22863;SDS011;11599;49.882;8.680;2022-09-03T14:46:45;2.40;;;1.42;;
22863;SDS011;11599;49.882;8.680;2022-09-03T14:57:17;2.27;;;1.40;;
22863;SDS011;11599;49.882;8.680;2022-09-03T15:07:44;2.70;;;1.42;;
22863;SDS011;11599;49.882;8.680;2022-09-03T15:18:13;2.20;;;1.50;;
22863;SDS011;11599;49.882;8.680;2022-09-03T15:28:40;2.70;;;1.50;;
22863;SDS011;11599;49.882;8.680;2022-09-03T15:39:07;2.10;;;1.43;;
22863;SDS011;11599;49.882;8.680;2022-09-03T15:49:43;2.33;;;1.40;;
22863;SDS011;11599;49.882;8.680;2022-09-03T16:00:08;3.00;;;1.50;;
22863;SDS011;11599;49.882;8.680;2022-09-03T16:10:34;2.60;;;1.40;;
22863;SDS011;11599;49.882;8.680;2022-09-03T16:20:59;2.90;;;1.40;;
22863;SDS011;11599;49.882;8.680;2022-09-03T16:31:26;2.10;;;1.53;;
22863;SDS011;11599;49.882;8.680;2022-09-03T16:41:54;2.33;;;1.77;;
22863;SDS011;11599;49.882;8.680;2022-09-03T16:52:22;3.93;;;2.03;;
22863;SDS011;11599;49.882;8.680;2022-09-03T17:02:49;1.52;;;0.90;;
22863;SDS011;11599;49.882;8.680;2022-09-03T17:13:22;0.90;;;0.60;;
22863;SDS011;11599;49.882;8.680;2022-09-03T17:34:33;1.07;;;0.60;;
22863;SDS011;11599;49.882;8.680;2022-09-03T17:45:02;0.80;;;0.57;;
22863;SDS011;11599;49.882;8.680;2022-09-03T17:55:30;0.80;;;0.60;;
22863;SDS011;11599;49.882;8.680;2022-09-03T18:05:55;1.50;;;0.70;;
22863;SDS011;11599;49.882;8.680;2022-09-03T18:16:23;2.40;;;0.80;;
22863;SDS011;11599;49.882;8.680;2022-09-03T18:26:46;2.50;;;0.80;;
22863;SDS011;11599;49.882;8.680;2022-09-03T18:37:29;2.17;;;0.70;;
22863;SDS011;11599;49.882;8.680;2022-09-03T18:48:10;2.40;;;0.70;;
22863;SDS011;11599;49.882;8.680;2022-09-03T18:58:55;1.93;;;0.90;;
22863;SDS011;11599;49.882;8.680;2022-09-03T19:09:42;0.90;;;0.60;;
22863;SDS011;11599;49.882;8.680;2022-09-03T19:20:25;1.92;;;0.70;;
22863;SDS011;11599;49.882;8.680;2022-09-03T19:31:30;1.77;;;0.60;;
22863;SDS011;11599;49.882;8.680;2022-09-03T19:42:16;1.58;;;0.80;;
22863;SDS011;11599;49.882;8.680;2022-09-03T19:52:57;1.50;;;0.90;;
22863;SDS011;11599;49.882;8.680;2022-09-03T20:03:39;0.93;;;0.73;;
22863;SDS011;11599;49.882;8.680;2022-09-03T20:14:19;2.33;;;1.00;;
22863;SDS011;11599;49.882;8.680;2022-09-03T20:24:44;2.20;;;0.93;;
22863;SDS011;11599;49.882;8.680;2022-09-03T20:35:16;1.10;;;0.90;;
22863;SDS011;11599;49.882;8.680;2022-09-03T20:45:46;1.00;;;0.80;;
22863;SDS011;11599;49.882;8.680;2022-09-03T20:56:12;1.73;;;1.00;;
22863;SDS011;11599;49.882;8.680;2022-09-03T21:06:37;1.00;;;0.70;;
22863;SDS011;11599;49.882;8.680;2022-09-03T21:17:05;0.90;;;0.70;;
22863;SDS011;11599;49.882;8.680;2022-09-03T21:27:32;1.23;;;0.80;;
22863;SDS011;11599;49.882;8.680;2022-09-03T21:37:57;2.13;;;0.90;;
22863;SDS011;11599;49.882;8.680;2022-09-03T21:48:21;1.77;;;1.27;;
22863;SDS011;11599;49.882;8.680;2022-09-03T21:58:47;2.35;;;1.45;;
22863;SDS011;11599;49.882;8.680;2022-09-03T22:09:13;3.22;;;1.42;;
22863;SDS011;11599;49.882;8.680;2022-09-03T22:19:37;2.87;;;1.80;;
22863;SDS011;11599;49.882;8.680;2022-09-03T22:30:04;4.83;;;2.20;;
22863;SDS011;11599;49.882;8.680;2022-09-03T22:40:31;2.83;;;2.20;;
22863;SDS011;11599;49.882;8.680;2022-09-03T22:50:57;2.80;;;1.70;;
22863;SDS011;11599;49.882;8.680;2022-09-03T23:01:20;2.17;;;1.58;;
22863;SDS011;11599;49.882;8.680;2022-09-03T23:11:46;2.00;;;1.60;;
22863;SDS011;11599;49.882;8.680;2022-09-03T23:22:09;5.67;;;1.70;;
22863;SDS011;11599;49.882;8.680;2022-09-03T23:32:34;2.30;;;1.80;;
22863;SDS011;11599;49.882;8.680;2022-09-03T23:42:59;2.73;;;1.73;;
22863;SDS011;11599;49.882;8.680;2022-09-03T23:53:31;1.80;;;1.10;;
